Time;durP1;ratioP1;P1;durP2;ratioP2;P2;SDS_P1;SDS_P2;PMS_P1;PMS_P2;Temp;Humidity;BMP_temperature;BMP_pressure;BME280_temperature;BME280_humidity;BME280_pressure;Samples;Min_cycle;Max_cycle;Signal;HPM_P1;HPM_P2
2021/05/08 00:02:44;;;;;;;10.00;3.97;;;;;;;7.16;65.36;101590.53;6141615;28;20227;-54
2021/05/08 00:06:07;;;;;;;8.47;3.37;;;;;;;7.05;65.77;101594.66;6141082;28;20499;-54
2021/05/08 00:09:28;;;;;;;8.50;3.80;;;;;;;6.88;66.35;101594.34;6142214;28;20223;-49
2021/05/08 00:12:48;;;;;;;9.33;3.87;;;;;;;6.83;66.45;101591.69;6139622;28;20231;-52
2021/05/08 00:16:08;;;;;;;7.43;3.87;;;;;;;6.74;66.35;101591.50;6134413;28;20259;-48
2021/05/08 00:19:29;;;;;;;8.73;3.47;;;;;;;6.50;66.61;101595.34;6133755;28;20243;-52
2021/05/08 00:22:50;;;;;;;10.37;4.73;;;;;;;7.01;65.46;101590.28;6140576;28;20908;-50
2021/05/08 00:26:11;;;;;;;7.60;3.73;;;;;;;6.99;65.16;101592.81;6140704;28;20255;-51
2021/05/08 00:29:31;;;;;;;9.63;4.50;;;;;;;7.17;64.56;101591.41;6142768;28;20826;-50
2021/05/08 00:32:52;;;;;;;10.20;3.23;;;;;;;6.93;65.14;101595.31;6128695;28;20227;-51
2021/05/08 00:36:13;;;;;;;13.17;4.23;;;;;;;7.04;64.91;101595.53;6135566;28;20765;-49
2021/05/08 00:39:34;;;;;;;8.67;4.97;;;;;;;7.08;64.80;101581.78;6142516;28;20235;-48
2021/05/08 00:42:54;;;;;;;6.53;3.43;;;;;;;6.81;65.35;101587.31;6154069;28;20252;-51
2021/05/08 00:46:15;;;;;;;11.53;4.17;;;;;;;6.73;65.69;101583.69;6137440;28;20318;-50
2021/05/08 00:49:37;;;;;;;8.30;4.27;;;;;;;7.00;64.88;101588.50;6132151;28;20219;-52
2021/05/08 00:52:58;;;;;;;10.40;4.77;;;;;;;6.63;65.80;101587.81;6144702;28;20686;-46
2021/05/08 00:56:20;;;;;;;19.53;5.37;;;;;;;6.66;65.95;101585.31;6136927;28;20247;-50
2021/05/08 00:59:41;;;;;;;9.00;4.43;;;;;;;7.00;64.96;101580.75;6139939;28;20234;-50
2021/05/08 01:03:02;;;;;;;7.03;4.60;;;;;;;6.90;65.23;101583.19;6132651;28;20519;-49
2021/05/08 01:06:23;;;;;;;6.30;3.93;;;;;;;7.13;64.25;101585.28;6140950;28;20235;-51
2021/05/08 01:09:46;;;;;;;4.97;3.17;;;;;;;6.46;66.83;101590.97;6155761;28;20632;-52
2021/05/08 01:13:07;;;;;;;12.63;3.90;;;;;;;6.97;65.12;101588.47;6158387;28;20239;-52
2021/05/08 01:16:28;;;;;;;7.83;4.20;;;;;;;6.94;65.14;101591.00;6117705;28;20231;-52
2021/05/08 01:19:48;;;;;;;10.20;4.97;;;;;;;6.94;65.36;101589.31;6144663;28;20239;-51
2021/05/08 01:23:11;;;;;;;10.70;4.03;;;;;;;7.22;64.56;101594.97;6141442;28;20243;-50
2021/05/08 01:26:32;;;;;;;8.70;3.57;;;;;;;6.36;67.22;101596.81;6141112;28;20239;-46
2021/05/08 01:29:52;;;;;;;13.63;4.83;;;;;;;6.39;66.78;101586.50;6137090;28;20235;-49
2021/05/08 01:33:14;;;;;;;9.87;5.83;;;;;;;6.33;67.52;101599.31;6156854;28;20227;-51
2021/05/08 01:36:38;;;;;;;6.57;3.80;;;;;;;6.65;66.71;101593.91;6144264;28;20365;-49
2021/05/08 01:40:03;;;;;;;12.73;4.67;;;;;;;6.54;67.15;101603.19;6142396;28;20227;-51
2021/05/08 01:43:25;;;;;;;10.10;5.27;;;;;;;6.55;66.73;101604.94;6142693;28;20235;-50
2021/05/08 01:46:46;;;;;;;8.50;4.03;;;;;;;6.55;66.98;101604.94;6143862;28;20239;-50
2021/05/08 01:50:10;;;;;;;9.63;4.33;;;;;;;6.62;66.53;101604.22;6155112;28;20559;-51
2021/05/08 01:53:30;;;;;;;7.57;3.90;;;;;;;6.69;66.37;101603.50;6143597;28;20504;-51
2021/05/08 01:56:51;;;;;;;9.97;4.70;;;;;;;6.56;67.07;101606.69;6141416;28;20235;-49
2021/05/08 02:00:20;;;;;;;11.57;4.57;;;;;;;6.66;66.95;101608.59;6144782;28;20239;-48
2021/05/08 02:04:09;;;;;;;12.27;6.90;;;;;;;6.88;66.28;101604.69;6140734;28;20240;-49
2021/05/08 02:07:31;;;;;;;8.30;4.47;;;;;;;6.83;66.29;101602.03;6130561;28;20461;-50
2021/05/08 02:10:52;;;;;;;12.70;5.47;;;;;;;6.88;65.71;101595.25;6150415;28;20712;-49
2021/05/08 02:14:13;;;;;;;10.73;4.40;;;;;;;6.53;66.84;101604.88;6156555;28;20243;-48
2021/05/08 02:17:34;;;;;;;12.10;5.63;;;;;;;6.48;66.98;101599.63;6151436;28;20223;-48
2021/05/08 02:20:55;;;;;;;9.63;4.27;;;;;;;6.57;66.94;101603.25;6144829;28;20239;-50
2021/05/08 02:24:16;;;;;;;8.77;4.63;;;;;;;6.71;66.19;101607.00;6152592;28;20254;-52
2021/05/08 02:27:37;;;;;;;6.93;4.67;;;;;;;6.41;67.63;101602.94;6145095;28;20238;-53
2021/05/08 02:30:59;;;;;;;9.47;4.50;;;;;;;6.37;67.56;101603.72;6148782;28;20239;-50
2021/05/08 02:34:23;;;;;;;10.57;5.60;;;;;;;6.18;68.29;101604.16;6136596;28;20518;-50
2021/05/08 02:37:45;;;;;;;7.17;4.57;;;;;;;5.80;69.71;101610.19;6143886;28;20251;-48
2021/05/08 02:41:05;;;;;;;9.50;5.00;;;;;;;6.07;69.00;101597.06;6142805;28;20238;-54
2021/05/08 02:44:27;;;;;;;9.83;5.00;;;;;;;5.93;69.31;101601.00;6135071;28;20231;-53
2021/05/08 02:47:50;;;;;;;8.73;4.50;;;;;;;6.07;68.84;101601.34;6140134;28;20244;-53
2021/05/08 02:51:11;;;;;;;15.90;6.30;;;;;;;5.95;69.19;101616.53;6139103;28;20251;-52
2021/05/08 02:54:33;;;;;;;10.63;4.70;;;;;;;5.91;69.17;101620.78;6123992;28;20235;-50
2021/05/08 02:57:53;;;;;;;8.83;4.13;;;;;;;6.03;68.58;101620.19;6137417;28;20251;-49
2021/05/08 03:01:14;;;;;;;8.93;4.97;;;;;;;5.96;68.66;101608.88;6156263;28;20235;-54
2021/05/08 03:04:36;;;;;;;8.67;5.83;;;;;;;5.98;68.66;101614.94;6154295;28;20235;-48
2021/05/08 03:07:56;;;;;;;10.67;5.20;;;;;;;5.63;70.44;101612.38;6141345;28;20329;-49
2021/05/08 03:11:18;;;;;;;8.43;4.70;;;;;;;5.68;69.71;101613.38;6137342;28;20247;-51
2021/05/08 03:14:41;;;;;;;9.20;5.93;;;;;;;5.59;69.96;101618.31;6119629;28;20235;-47
2021/05/08 03:18:02;;;;;;;14.23;6.20;;;;;;;6.04;68.62;101612.47;6155873;28;20258;-47
2021/05/08 03:21:25;;;;;;;10.50;6.30;;;;;;;5.88;68.69;101602.63;6149908;28;20227;-52
2021/05/08 03:24:45;;;;;;;7.70;5.10;;;;;;;6.21;67.47;101606.81;6155541;28;20632;-48
2021/05/08 03:28:07;;;;;;;12.97;6.27;;;;;;;6.53;66.56;101599.72;6138181;28;20340;-50
2021/05/08 03:31:32;;;;;;;7.97;4.10;;;;;;;6.54;66.12;101613.53;6144177;28;20239;-52
2021/05/08 03:34:53;;;;;;;10.43;4.60;;;;;;;5.87;68.47;101613.78;6140289;28;20613;-48
2021/05/08 03:38:18;;;;;;;10.37;5.10;;;;;;;5.78;68.89;101608.41;6158971;28;20239;-55
2021/05/08 03:41:39;;;;;;;8.53;4.90;;;;;;;6.26;67.34;101607.78;6137525;28;20231;-49
2021/05/08 03:44:59;;;;;;;12.87;4.60;;;;;;;6.38;66.99;101608.06;6139823;28;20235;-50
2021/05/08 03:48:20;;;;;;;12.60;6.17;;;;;;;6.27;67.29;101602.66;6141019;28;20235;-52
2021/05/08 03:51:40;;;;;;;10.57;4.87;;;;;;;6.30;66.66;101601.81;6145918;28;20516;-53
2021/05/08 03:55:03;;;;;;;10.97;4.90;;;;;;;5.98;68.07;101611.50;6142383;28;20235;-49
2021/05/08 03:58:25;;;;;;;10.67;5.17;;;;;;;6.12;67.31;101604.91;6138813;28;20454;-52
2021/05/08 04:01:46;;;;;;;7.47;5.90;;;;;;;6.49;66.39;101616.91;6145773;28;20243;-51
2021/05/08 04:05:07;;;;;;;8.47;4.87;;;;;;;6.19;67.92;101608.50;6140093;28;20373;-52
2021/05/08 04:08:28;;;;;;;8.77;5.60;;;;;;;6.29;66.92;101613.88;6142715;28;20235;-53
2021/05/08 04:11:49;;;;;;;10.83;5.73;;;;;;;6.24;67.53;101614.63;6140106;28;20247;-55
2021/05/08 04:15:11;;;;;;;10.10;5.43;;;;;;;6.33;67.61;101620.00;6133431;28;20231;-51
2021/05/08 04:18:31;;;;;;;10.93;5.73;;;;;;;5.82;69.04;101618.84;6141532;28;20223;-52
2021/05/08 04:21:52;;;;;;;13.77;6.23;;;;;;;6.28;67.66;101625.09;6141444;28;20254;-48
2021/05/08 04:25:13;;;;;;;7.63;5.97;;;;;;;6.28;67.72;101624.19;6136073;28;20247;-47
2021/05/08 04:28:34;;;;;;;10.33;6.33;;;;;;;5.93;68.74;101624.25;6127276;28;20231;-49
2021/05/08 04:31:55;;;;;;;9.27;5.70;;;;;;;5.92;68.78;101630.28;6138850;28;20230;-50
2021/05/08 04:35:16;;;;;;;10.23;6.50;;;;;;;6.35;68.15;101627.81;6137664;28;20558;-49
2021/05/08 04:38:38;;;;;;;10.07;6.17;;;;;;;6.66;67.22;101634.50;6140645;28;20867;-51
2021/05/08 04:42:00;;;;;;;9.70;7.77;;;;;;;6.20;68.72;101638.69;6142143;28;20321;-53
2021/05/08 04:45:24;;;;;;;12.77;7.67;;;;;;;6.36;67.94;101635.63;6140896;28;20231;-48
2021/05/08 04:48:45;;;;;;;10.50;7.90;;;;;;;6.67;66.82;101638.84;6156034;28;20242;-53
2021/05/08 04:52:06;;;;;;;8.33;6.67;;;;;;;6.74;66.96;101639.81;6147498;28;20231;-55
2021/05/08 04:55:26;;;;;;;11.27;6.60;;;;;;;6.44;67.66;101641.81;6144013;28;20219;-50
2021/05/08 04:58:47;;;;;;;15.97;7.43;;;;;;;6.87;66.81;101650.44;6146925;28;20265;-53
2021/05/08 05:02:08;;;;;;;16.40;7.23;;;;;;;6.84;67.32;101650.41;6144189;28;20235;-48
2021/05/08 05:05:28;;;;;;;11.13;7.83;;;;;;;6.63;67.90;101649.94;6144752;28;20239;-51
2021/05/08 05:08:49;;;;;;;14.80;8.07;;;;;;;7.08;66.26;101651.72;6141155;28;20247;-53
2021/05/08 05:12:10;;;;;;;14.43;7.37;;;;;;;7.04;66.35;101648.19;6145416;28;20278;-49
2021/05/08 05:15:30;;;;;;;13.50;7.23;;;;;;;6.83;67.22;101648.63;6139828;28;20471;-52
2021/05/08 05:18:52;;;;;;;12.93;7.73;;;;;;;6.91;67.17;101659.16;6141393;28;20227;-54
2021/05/08 05:22:12;;;;;;;14.20;7.73;;;;;;;7.37;65.44;101651.38;6126294;28;20235;-50
2021/05/08 05:25:33;;;;;;;15.00;7.30;;;;;;;7.41;65.43;101660.94;6139911;28;20235;-48
2021/05/08 05:28:54;;;;;;;14.73;7.37;;;;;;;7.78;64.38;101664.13;6134483;28;20247;-48
2021/05/08 05:32:14;;;;;;;10.00;6.77;;;;;;;7.72;64.51;101664.03;6136586;28;20262;-52
2021/05/08 05:35:35;;;;;;;8.33;6.70;;;;;;;7.71;63.66;101667.47;6139331;28;20527;-51
2021/05/08 05:38:56;;;;;;;11.40;6.70;;;;;;;7.55;64.91;101677.59;6143630;28;20625;-53
2021/05/08 05:42:16;;;;;;;10.63;6.97;;;;;;;7.13;65.85;101678.56;6145109;28;20235;-49
2021/05/08 05:45:37;;;;;;;8.57;6.47;;;;;;;7.52;64.59;101677.53;6144795;28;20624;-52
2021/05/08 05:48:58;;;;;;;10.67;7.77;;;;;;;7.18;65.55;101671.75;6139958;28;20243;-53
2021/05/08 05:52:20;;;;;;;8.93;7.00;;;;;;;6.87;67.19;101678.06;6137504;28;20279;-50
2021/05/08 05:55:40;;;;;;;8.77;6.03;;;;;;;7.16;65.68;101675.16;6143540;28;20600;-50
2021/05/08 05:59:01;;;;;;;12.73;6.77;;;;;;;7.09;65.74;101672.47;6137983;28;20231;-52
2021/05/08 06:02:21;;;;;;;9.83;7.17;;;;;;;7.35;65.29;101673.75;6133737;28;20231;-50
2021/05/08 06:05:41;;;;;;;8.10;7.30;;;;;;;7.27;65.69;101684.88;6134310;28;20255;-49
2021/05/08 06:09:04;;;;;;;12.37;6.23;;;;;;;7.33;65.26;101691.00;6138113;28;20271;-51
2021/05/08 06:12:25;;;;;;;8.63;6.20;;;;;;;7.01;66.30;101683.50;6132654;28;20230;-49
2021/05/08 06:15:46;;;;;;;21.50;7.40;;;;;;;7.06;66.08;101679.31;6139358;28;20928;-54
2021/05/08 06:19:07;;;;;;;10.27;6.67;;;;;;;7.40;65.30;101674.72;6139186;28;20231;-53
2021/05/08 06:22:27;;;;;;;6.67;5.80;;;;;;;7.25;65.88;101690.84;6140418;28;20512;-52
2021/05/08 06:25:49;;;;;;;11.13;6.27;;;;;;;8.06;63.31;101681.88;6137602;28;20613;-51
2021/05/08 06:29:09;;;;;;;9.47;7.60;;;;;;;8.32;62.28;101685.69;6143125;28;20243;-48
2021/05/08 06:32:30;;;;;;;9.73;6.23;;;;;;;7.75;64.30;101695.19;6138527;28;20255;-48
2021/05/08 06:35:50;;;;;;;10.13;5.97;;;;;;;7.80;63.63;101703.94;6136922;28;20235;-53
2021/05/08 06:39:11;;;;;;;9.93;5.80;;;;;;;8.41;61.98;101693.59;6142922;28;20613;-50
2021/05/08 06:42:33;;;;;;;9.87;5.73;;;;;;;8.81;60.92;101695.03;6133537;28;20230;-48
2021/05/08 06:45:53;;;;;;;12.77;5.93;;;;;;;8.92;60.55;101692.56;6133434;28;20760;-54
2021/05/08 06:49:14;;;;;;;11.60;6.73;;;;;;;8.32;61.82;101698.66;6141146;28;20264;-51
2021/05/08 06:52:34;;;;;;;7.13;5.83;;;;;;;8.83;59.61;101688.13;6125390;28;20231;-49
2021/05/08 06:55:55;;;;;;;9.27;5.10;;;;;;;9.55;57.66;101703.59;6137345;28;20235;-47
2021/05/08 06:59:16;;;;;;;10.50;5.43;;;;;;;9.50;58.31;101688.81;6139299;28;20247;-49
2021/05/08 07:02:37;;;;;;;9.70;6.27;;;;;;;8.64;60.30;101696.53;6138357;28;20227;-51
2021/05/08 07:05:57;;;;;;;15.40;7.20;;;;;;;8.65;60.92;101696.56;6129606;28;20242;-49
2021/05/08 07:09:18;;;;;;;16.00;7.20;;;;;;;8.99;59.99;101690.91;6129450;28;20235;-48
2021/05/08 07:12:39;;;;;;;8.60;6.07;;;;;;;8.79;60.50;101696.72;6130264;28;20234;-47
2021/05/08 07:16:00;;;;;;;11.30;5.87;;;;;;;9.00;59.61;101693.53;6129431;28;20228;-50
2021/05/08 07:19:20;;;;;;;12.23;5.50;;;;;;;9.63;57.61;101694.19;6125355;28;20239;-51
2021/05/08 07:22:41;;;;;;;10.70;6.10;;;;;;;9.57;58.14;101696.69;6129994;28;20227;-51
2021/05/08 07:26:01;;;;;;;9.23;5.50;;;;;;;10.14;55.68;101691.97;6128169;28;20358;-50
2021/05/08 07:29:22;;;;;;;8.27;5.67;;;;;;;9.35;57.89;101698.22;6132218;28;20239;-49
2021/05/08 07:32:43;;;;;;;8.13;5.73;;;;;;;9.76;57.21;101694.28;6126484;28;20278;-51
2021/05/08 07:36:04;;;;;;;12.73;7.27;;;;;;;10.04;57.24;101695.34;6128757;28;20235;-48
2021/05/08 07:39:25;;;;;;;11.23;6.80;;;;;;;9.87;56.99;101695.22;6128307;28;20310;-50
2021/05/08 07:42:45;;;;;;;10.50;5.13;;;;;;;10.13;55.68;101687.59;6130485;28;20231;-48
2021/05/08 07:46:05;;;;;;;7.47;4.67;;;;;;;9.51;57.06;101694.03;6116642;28;20338;-50
2021/05/08 07:49:27;;;;;;;10.60;4.23;;;;;;;9.81;55.36;101693.44;6130384;28;20239;-49
2021/05/08 07:52:48;;;;;;;9.30;3.97;;;;;;;10.01;54.31;101693.59;6129431;28;20258;-50
2021/05/08 07:56:09;;;;;;;9.57;4.80;;;;;;;10.21;53.36;101695.47;6123289;28;20231;-49
2021/05/08 07:59:29;;;;;;;10.60;4.33;;;;;;;10.54;52.42;101681.78;6125733;28;20235;-53
2021/05/08 08:02:50;;;;;;;4.63;2.53;;;;;;;10.86;50.48;101674.97;6128813;28;20231;-52
2021/05/08 08:06:12;;;;;;;9.70;4.20;;;;;;;10.31;51.74;101684.25;6129827;28;20263;-51
2021/05/08 08:09:32;;;;;;;6.50;3.97;;;;;;;9.40;51.58;101685.25;6126400;28;20239;-53
2021/05/08 08:12:53;;;;;;;10.13;3.53;;;;;;;9.63;50.96;101678.56;6128118;28;20231;-49
2021/05/08 08:16:13;;;;;;;5.17;4.20;;;;;;;10.21;50.51;101670.28;6127494;28;20247;-50
2021/05/08 08:19:34;;;;;;;5.63;3.30;;;;;;;9.94;50.91;101668.38;6120088;28;20235;-47
2021/05/08 08:22:55;;;;;;;6.67;3.60;;;;;;;10.55;50.32;101664.44;6134331;28;20260;-46
2021/05/08 08:26:16;;;;;;;8.20;3.50;;;;;;;10.22;51.80;101658.16;6142742;28;20271;-54
2021/05/08 08:29:36;;;;;;;8.57;3.70;;;;;;;11.83;50.73;101660.34;6143299;28;20223;-52
2021/05/08 08:32:57;;;;;;;7.57;3.00;;;;;;;11.01;48.11;101661.97;6145034;28;20338;-52
2021/05/08 08:36:17;;;;;;;10.13;3.47;;;;;;;11.78;51.05;101668.16;6143025;28;20243;-54
2021/05/08 08:39:39;;;;;;;9.77;2.67;;;;;;;12.04;47.23;101667.31;6145285;28;20235;-53
2021/05/08 08:43:00;;;;;;;7.50;3.03;;;;;;;12.33;47.65;101666.34;6136822;28;20894;-55
2021/05/08 08:46:20;;;;;;;8.20;3.30;;;;;;;12.31;43.96;101661.16;6137317;28;20617;-54
2021/05/08 08:49:41;;;;;;;6.60;3.13;;;;;;;11.69;44.95;101667.28;6145700;28;20254;-52
2021/05/08 08:53:02;;;;;;;4.50;2.77;;;;;;;11.35;45.42;101667.28;6140246;28;20235;-52
2021/05/08 08:56:26;;;;;;;8.07;3.40;;;;;;;11.41;45.31;101665.53;6143106;28;20627;-53
2021/05/08 08:59:47;;;;;;;3.87;2.40;;;;;;;12.01;45.29;101656.88;6139290;28;20290;-51
2021/05/08 09:03:08;;;;;;;2.80;2.30;;;;;;;12.74;42.14;101653.16;6140189;28;20231;-50
2021/05/08 09:06:28;;;;;;;4.67;2.80;;;;;;;11.35;44.29;101665.53;6140178;28;20235;-53
2021/05/08 09:09:50;;;;;;;5.73;2.70;;;;;;;11.57;44.06;101657.72;6140941;28;20243;-53
2021/05/08 09:13:17;;;;;;;6.87;2.70;;;;;;;11.99;44.48;101653.38;6125376;28;20653;-49
2021/05/08 09:16:38;;;;;;;6.50;3.07;;;;;;;11.82;43.93;101646.44;6139980;28;20251;-51
2021/05/08 09:20:00;;;;;;;5.27;2.60;;;;;;;12.01;43.67;101644.66;6141377;28;20227;-50
2021/05/08 09:23:22;;;;;;;5.27;2.63;;;;;;;11.79;43.12;101650.78;6140658;28;20243;-49
2021/05/08 09:26:48;;;;;;;6.67;2.60;;;;;;;12.19;43.16;101642.88;6135017;28;20240;-47
2021/05/08 09:30:19;;;;;;;7.03;2.40;;;;;;;11.42;43.77;101654.25;6139221;28;20590;-52
2021/05/08 09:33:40;;;;;;;4.83;2.30;;;;;;;12.86;41.68;101636.53;6136702;28;20235;-50
2021/05/08 09:37:00;;;;;;;5.20;2.33;;;;;;;11.95;42.04;101633.38;6136732;28;20597;-53
2021/05/08 09:40:24;;;;;;;4.90;2.53;;;;;;;11.41;42.29;101633.38;6138665;28;20250;-54
2021/05/08 09:43:45;;;;;;;6.80;3.10;;;;;;;11.98;42.23;101629.03;6138663;28;20235;-53
2021/05/08 09:47:29;;;;;;;8.03;2.83;;;;;;;11.68;42.71;101626.44;6131663;28;20231;-46
2021/05/08 09:50:50;;;;;;;3.73;2.93;;;;;;;13.30;40.38;101611.88;6131768;28;20321;-49
2021/05/08 09:54:15;;;;;;;4.80;2.90;;;;;;;12.14;42.20;101603.75;6137327;28;20278;-51
2021/05/08 09:57:35;;;;;;;5.67;2.63;;;;;;;12.36;41.66;101603.66;6135839;28;20577;-53
2021/05/08 10:00:56;;;;;;;5.00;2.50;;;;;;;12.50;40.82;101609.69;6133925;28;20239;-51
2021/05/08 10:04:30;;;;;;;4.27;3.20;;;;;;;13.57;39.43;101600.31;6138663;28;20228;-50
2021/05/08 10:07:51;;;;;;;6.50;2.70;;;;;;;13.14;39.60;101607.59;6143964;28;20227;-49
2021/05/08 10:11:12;;;;;;;5.77;2.73;;;;;;;12.04;40.24;101611.59;6140145;28;20259;-54
2021/05/08 10:14:34;;;;;;;4.13;2.27;;;;;;;13.97;37.87;101596.44;6136102;28;20601;-54
2021/05/08 10:17:55;;;;;;;5.00;2.50;;;;;;;14.88;36.52;101590.06;6139060;28;20338;-54
2021/05/08 10:21:16;;;;;;;5.30;2.60;;;;;;;13.70;37.75;101595.81;6138735;28;20238;-52
2021/05/08 10:24:39;;;;;;;6.03;3.40;;;;;;;14.12;37.28;101582.31;6135415;28;20235;-51
2021/05/08 10:28:00;;;;;;;5.17;3.13;;;;;;;14.25;36.08;101580.38;6127339;28;20234;-49
2021/05/08 10:31:22;;;;;;;5.63;2.63;;;;;;;14.39;35.20;101575.84;6129670;28;20254;-49
2021/05/08 10:34:50;;;;;;;3.77;2.57;;;;;;;13.82;36.48;101581.72;6120334;28;20881;-49
2021/05/08 10:38:20;;;;;;;3.80;2.73;;;;;;;13.71;37.40;101587.09;6124692;28;20570;-53
2021/05/08 10:41:51;;;;;;;5.40;2.57;;;;;;;14.35;39.69;101567.16;6130303;28;20277;-49
2021/05/08 10:45:32;;;;;;;5.97;3.63;;;;;;;14.47;35.51;101565.28;6129801;28;20226;-51
2021/05/08 10:49:19;;;;;;;4.97;3.00;;;;;;;14.19;35.46;101568.25;6133846;28;20227;-50
2021/05/08 10:53:03;;;;;;;3.97;3.43;;;;;;;14.71;35.02;101566.72;6126200;28;20239;-51
2021/05/08 10:56:32;;;;;;;6.57;3.23;;;;;;;15.33;33.30;101566.63;6129407;28;20240;-51
2021/05/08 11:00:26;;;;;;;6.37;3.13;;;;;;;16.54;32.44;101558.19;6125877;28;20234;-50
2021/05/08 11:04:06;;;;;;;5.27;3.43;;;;;;;13.69;34.62;101559.22;6130463;28;20240;-50
2021/05/08 11:07:32;;;;;;;4.43;3.57;;;;;;;15.31;31.74;101553.53;6131172;28;20246;-47
2021/05/08 11:10:53;;;;;;;9.40;4.83;;;;;;;15.89;31.74;101551.63;6126626;28;20330;-48
2021/05/08 11:14:15;;;;;;;6.10;3.20;;;;;;;14.09;34.80;101551.75;6130172;28;20231;-50
2021/05/08 11:18:02;;;;;;;3.97;2.80;;;;;;;15.77;31.90;101541.38;6142268;28;20226;-49
2021/05/08 11:22:03;;;;;;;3.97;2.73;;;;;;;14.71;32.55;101540.50;6123225;28;20227;-48
2021/05/08 11:25:33;;;;;;;5.63;3.43;;;;;;;14.14;33.98;101536.00;6135817;28;20227;-50
2021/05/08 11:28:54;;;;;;;4.37;3.13;;;;;;;16.14;32.14;101535.38;6129178;28;20558;-50
2021/05/08 11:32:15;;;;;;;6.37;3.27;;;;;;;15.74;32.58;101525.66;6128234;28;20613;-52
2021/05/08 11:35:36;;;;;;;4.03;3.40;;;;;;;15.03;31.87;101537.38;6134557;28;20346;-51
2021/05/08 11:39:08;;;;;;;4.37;3.93;;;;;;;14.52;30.67;101527.63;6127101;28;20232;-46
2021/05/08 11:42:31;;;;;;;3.23;2.70;;;;;;;16.20;28.46;101514.22;6136272;28;20235;-51
2021/05/08 11:45:52;;;;;;;5.97;2.97;;;;;;;16.10;28.02;101516.19;6128641;28;20236;-49
2021/05/08 11:49:32;;;;;;;5.63;2.60;;;;;;;17.19;29.38;101507.56;6130273;28;20668;-50
2021/05/08 11:52:54;;;;;;;3.60;2.77;;;;;;;17.91;29.71;101496.84;6120479;28;20283;-51
2021/05/08 11:56:15;;;;;;;6.47;3.93;;;;;;;17.72;28.23;101501.78;6122895;28;20297;-51
2021/05/08 11:59:35;;;;;;;3.60;2.87;;;;;;;16.05;29.05;101493.53;6128573;28;20243;-50
2021/05/08 12:03:07;;;;;;;3.60;2.80;;;;;;;17.00;27.95;101490.50;6131591;28;20227;-56
2021/05/08 12:06:29;;;;;;;5.70;3.33;;;;;;;16.89;31.09;101488.16;6116211;28;20235;-51
2021/05/08 12:09:50;;;;;;;3.40;3.10;;;;;;;15.66;29.81;101485.53;6130029;28;20242;-52
2021/05/08 12:13:11;;;;;;;6.10;3.37;;;;;;;16.57;28.46;101473.97;6132576;28;20566;-50
2021/05/08 12:16:32;;;;;;;4.43;2.70;;;;;;;16.71;33.08;101471.91;6133583;28;20313;-53
2021/05/08 12:19:54;;;;;;;2.80;2.60;;;;;;;16.23;28.68;101471.28;6134343;28;20556;-53
2021/05/08 12:23:17;;;;;;;6.50;3.60;;;;;;;18.44;28.91;101459.25;6124877;28;20251;-52
2021/05/08 12:26:48;;;;;;;3.70;2.83;;;;;;;18.79;27.74;101460.75;6125085;28;20601;-50
2021/05/08 12:30:10;;;;;;;3.03;2.60;;;;;;;17.16;26.25;101452.38;6130597;28;20610;-54
2021/05/08 12:33:36;;;;;;;2.97;2.70;;;;;;;15.41;28.14;101443.13;6130921;28;20239;-51
2021/05/08 12:37:01;;;;;;;6.80;3.17;;;;;;;16.52;27.31;101444.31;6134405;28;20336;-51
2021/05/08 12:40:31;;;;;;;5.93;3.50;;;;;;;17.61;28.51;101435.38;6141705;28;20314;-54
2021/05/08 12:44:00;;;;;;;5.30;3.03;;;;;;;18.07;24.57;101437.53;6126943;28;20230;-49
2021/05/08 12:47:22;;;;;;;4.43;3.27;;;;;;;17.62;25.36;101431.81;6125231;28;20227;-50
2021/05/08 12:50:42;;;;;;;3.63;2.83;;;;;;;18.72;23.32;101419.66;6125136;28;21009;-52
2021/05/08 12:54:23;;;;;;;3.83;2.93;;;;;;;15.63;27.00;101428.72;6127740;28;20680;-52
2021/05/08 12:57:45;;;;;;;3.58;2.72;;;;;;;16.50;26.54;101423.31;6125020;28;20645;-51
2021/05/08 13:01:08;;;;;;;6.50;3.27;;;;;;;17.15;25.75;101418.22;6129344;28;20239;-50
2021/05/08 13:04:39;;;;;;;3.57;2.60;;;;;;;17.60;25.98;101409.91;6129823;28;20298;-50
2021/05/08 13:08:00;;;;;;;3.33;2.53;;;;;;;16.99;25.67;101401.97;6132050;28;20230;-52
2021/05/08 13:11:34;;;;;;;4.20;2.37;;;;;;;16.29;26.07;101414.16;6128151;28;20322;-51
2021/05/08 13:15:09;;;;;;;4.67;2.77;;;;;;;14.68;28.86;101417.34;6130718;28;20235;-54
2021/05/08 13:18:29;;;;;;;4.97;3.70;;;;;;;15.65;28.11;101394.56;6128064;28;20257;-50
2021/05/08 13:21:52;;;;;;;3.43;3.13;;;;;;;17.06;25.58;101392.97;6131810;28;20250;-52
2021/05/08 13:25:15;;;;;;;3.67;2.53;;;;;;;17.83;24.40;101388.19;6130144;28;20325;-54
2021/05/08 13:28:35;;;;;;;2.90;2.60;;;;;;;17.54;25.44;101386.41;6120189;28;20633;-49
2021/05/08 13:31:57;;;;;;;4.67;2.77;;;;;;;16.24;27.07;101376.59;6129153;28;20243;-48
2021/05/08 13:35:19;;;;;;;7.80;3.70;;;;;;;17.67;25.50;101371.97;6126905;28;20234;-53
2021/05/08 13:38:39;;;;;;;4.87;2.93;;;;;;;17.35;25.26;101365.00;6119762;28;20239;-50
2021/05/08 13:41:59;;;;;;;4.53;2.67;;;;;;;18.05;24.56;101372.63;6130774;28;20629;-51
2021/05/08 13:45:20;;;;;;;2.70;2.50;;;;;;;17.19;25.08;101356.69;6131148;28;20239;-53
2021/05/08 13:48:42;;;;;;;4.03;3.00;;;;;;;17.43;25.21;101348.09;6126026;28;20823;-50
2021/05/08 13:52:02;;;;;;;4.77;2.80;;;;;;;16.44;26.00;101351.59;6121180;28;20235;-53
2021/05/08 13:55:23;;;;;;;6.43;3.10;;;;;;;15.40;27.64;101360.94;6128169;28;20243;-50
2021/05/08 13:58:44;;;;;;;3.67;2.90;;;;;;;14.47;28.48;101353.88;6130560;28;20231;-50
2021/05/08 14:02:04;;;;;;;4.13;2.97;;;;;;;14.79;28.52;101348.97;6131300;28;20227;-49
2021/05/08 14:05:26;;;;;;;3.60;2.90;;;;;;;15.59;27.68;101347.44;6132048;28;20551;-48
2021/05/08 14:08:46;;;;;;;4.07;3.27;;;;;;;15.86;27.50;101331.09;6129345;28;20231;-53
2021/05/08 14:12:07;;;;;;;2.90;2.37;;;;;;;15.68;27.17;101334.09;6129085;28;20295;-50
2021/05/08 14:15:27;;;;;;;5.43;3.80;;;;;;;16.14;27.56;101306.78;6127747;28;20621;-49
2021/05/08 14:18:48;;;;;;;3.97;2.67;;;;;;;16.39;27.00;101312.31;6129463;28;20234;-55
2021/05/08 14:22:09;;;;;;;5.13;3.87;;;;;;;16.05;27.75;101307.00;6129497;28;20231;-51
2021/05/08 14:25:30;;;;;;;3.67;3.43;;;;;;;15.63;28.22;101307.09;6129637;28;20255;-51
2021/05/08 14:28:50;;;;;;;4.60;2.80;;;;;;;16.25;27.80;101296.03;6129573;28;20238;-53
2021/05/08 14:32:11;;;;;;;2.93;2.60;;;;;;;14.67;29.43;101287.16;6129795;28;20235;-48
2021/05/08 14:35:34;;;;;;;3.87;2.43;;;;;;;15.60;28.62;101280.91;6131470;28;20807;-49
2021/05/08 14:38:56;;;;;;;3.37;2.50;;;;;;;16.15;28.60;101269.13;6128186;28;20235;-51
2021/05/08 14:42:17;;;;;;;3.83;2.73;;;;;;;15.32;28.97;101281.50;6134875;28;20223;-48
2021/05/08 14:45:37;;;;;;;4.67;3.03;;;;;;;15.44;29.65;101278.59;6142255;28;20576;-54
2021/05/08 14:48:58;;;;;;;3.03;2.73;;;;;;;15.86;28.56;101268.06;6127993;28;20247;-52
2021/05/08 14:52:18;;;;;;;4.37;2.70;;;;;;;15.56;29.20;101266.97;6128264;28;20238;-47
2021/05/08 14:55:39;;;;;;;7.13;3.10;;;;;;;16.01;29.07;101255.44;6127299;28;20672;-47
2021/05/08 14:59:01;;;;;;;4.97;2.50;;;;;;;16.32;28.90;101255.53;6125326;28;20230;-53
2021/05/08 15:02:21;;;;;;;3.57;2.60;;;;;;;15.83;29.21;101243.63;6134933;28;20255;-52
2021/05/08 15:05:42;;;;;;;2.77;2.20;;;;;;;15.58;29.38;101248.56;6129154;28;20243;-55
2021/05/08 15:09:03;;;;;;;3.80;2.80;;;;;;;15.10;29.90;101241.72;6127422;28;20256;-52
2021/05/08 15:12:24;;;;;;;3.47;3.13;;;;;;;15.13;29.77;101246.91;6127517;28;20241;-54
2021/05/08 15:15:45;;;;;;;2.40;2.20;;;;;;;15.29;30.00;101244.81;6124031;28;20259;-53
2021/05/08 15:19:06;;;;;;;3.50;2.03;;;;;;;15.32;29.83;101244.78;6121013;28;20227;-51
2021/05/08 15:22:27;;;;;;;3.97;2.73;;;;;;;15.35;30.10;101244.69;6127029;28;20239;-53
2021/05/08 15:25:47;;;;;;;3.07;2.63;;;;;;;15.46;29.58;101239.22;6125093;28;20360;-51
2021/05/08 15:29:09;;;;;;;2.30;2.10;;;;;;;15.14;29.77;101225.91;6121279;28;20235;-47
2021/05/08 15:32:30;;;;;;;3.80;2.53;;;;;;;14.79;30.48;101228.38;6117153;28;20239;-50
2021/05/08 15:35:50;;;;;;;3.23;2.93;;;;;;;14.96;30.44;101234.16;6121343;28;21292;-51
2021/05/08 15:39:11;;;;;;;3.27;2.70;;;;;;;14.87;30.60;101227.34;6126714;28;20231;-54
2021/05/08 15:42:33;;;;;;;5.07;2.27;;;;;;;15.09;30.78;101219.03;6138376;28;20981;-48
2021/05/08 15:45:54;;;;;;;4.47;2.30;;;;;;;15.53;30.54;101217.19;6132453;28;20266;-49